sensor_id;sensor_type;location;lat;lon;timestamp;P1;durP1;ratioP1;P2;durP2;ratioP2
67776;SDS011;54576;52.020;5.536;2024-03-25T00:00:12;25.50;;;3.10;;
67776;SDS011;54576;52.020;5.536;2024-03-25T00:02:39;15.05;;;3.70;;
67776;SDS011;54576;52.020;5.536;2024-03-25T00:05:06;21.25;;;3.28;;
67776;SDS011;54576;52.020;5.536;2024-03-25T00:07:40;21.38;;;2.42;;
67776;SDS011;54576;52.020;5.536;2024-03-25T00:10:06;25.70;;;2.97;;
67776;SDS011;54576;52.020;5.536;2024-03-25T00:12:33;26.20;;;3.53;;
67776;SDS011;54576;52.020;5.536;2024-03-25T00:15:02;13.95;;;2.45;;
67776;SDS011;54576;52.020;5.536;2024-03-25T00:17:30;40.30;;;3.80;;
67776;SDS011;54576;52.020;5.536;2024-03-25T00:19:56;24.45;;;3.42;;
67776;SDS011;54576;52.020;5.536;2024-03-25T00:22:22;26.83;;;3.08;;
67776;SDS011;54576;52.020;5.536;2024-03-25T00:24:50;20.48;;;2.47;;
67776;SDS011;54576;52.020;5.536;2024-03-25T00:27:16;21.48;;;2.42;;
67776;SDS011;54576;52.020;5.536;2024-03-25T00:29:42;29.48;;;4.10;;
67776;SDS011;54576;52.020;5.536;2024-03-25T00:32:09;21.73;;;2.78;;
67776;SDS011;54576;52.020;5.536;2024-03-25T00:34:35;28.00;;;3.75;;
67776;SDS011;54576;52.020;5.536;2024-03-25T00:37:01;27.85;;;3.72;;
67776;SDS011;54576;52.020;5.536;2024-03-25T00:39:28;20.98;;;2.90;;
67776;SDS011;54576;52.020;5.536;2024-03-25T00:41:57;23.17;;;3.78;;
67776;SDS011;54576;52.020;5.536;2024-03-25T00:44:22;24.63;;;3.08;;
67776;SDS011;54576;52.020;5.536;2024-03-25T00:46:48;29.80;;;3.65;;
67776;SDS011;54576;52.020;5.536;2024-03-25T00:49:14;29.80;;;3.80;;
67776;SDS011;54576;52.020;5.536;2024-03-25T00:51:40;28.50;;;4.03;;
67776;SDS011;54576;52.020;5.536;2024-03-25T00:54:05;33.13;;;4.10;;
67776;SDS011;54576;52.020;5.536;2024-03-25T00:56:34;31.30;;;4.47;;
67776;SDS011;54576;52.020;5.536;2024-03-25T00:58:59;23.95;;;3.75;;
67776;SDS011;54576;52.020;5.536;2024-03-25T01:01:30;28.23;;;3.78;;
67776;SDS011;54576;52.020;5.536;2024-03-25T01:04:00;36.63;;;4.40;;
67776;SDS011;54576;52.020;5.536;2024-03-25T01:06:26;20.92;;;3.22;;
67776;SDS011;54576;52.020;5.536;2024-03-25T01:08:52;36.67;;;5.03;;
67776;SDS011;54576;52.020;5.536;2024-03-25T01:11:18;26.65;;;3.15;;
67776;SDS011;54576;52.020;5.536;2024-03-25T01:13:43;39.03;;;4.07;;
67776;SDS011;54576;52.020;5.536;2024-03-25T01:16:09;33.92;;;4.40;;
67776;SDS011;54576;52.020;5.536;2024-03-25T01:18:35;36.15;;;4.07;;
67776;SDS011;54576;52.020;5.536;2024-03-25T01:21:01;19.83;;;2.97;;
67776;SDS011;54576;52.020;5.536;2024-03-25T01:23:26;19.58;;;3.88;;
67776;SDS011;54576;52.020;5.536;2024-03-25T01:25:52;29.63;;;4.05;;
67776;SDS011;54576;52.020;5.536;2024-03-25T01:28:18;21.45;;;3.30;;
67776;SDS011;54576;52.020;5.536;2024-03-25T01:30:43;37.45;;;3.55;;
67776;SDS011;54576;52.020;5.536;2024-03-25T01:33:12;40.63;;;4.95;;
67776;SDS011;54576;52.020;5.536;2024-03-25T01:35:37;32.27;;;4.40;;
67776;SDS011;54576;52.020;5.536;2024-03-25T01:38:03;41.17;;;3.72;;
67776;SDS011;54576;52.020;5.536;2024-03-25T01:40:29;33.17;;;3.45;;
67776;SDS011;54576;52.020;5.536;2024-03-25T01:42:58;40.03;;;3.63;;
67776;SDS011;54576;52.020;5.536;2024-03-25T01:45:24;32.83;;;3.92;;
67776;SDS011;54576;52.020;5.536;2024-03-25T01:47:51;25.77;;;3.63;;
67776;SDS011;54576;52.020;5.536;2024-03-25T01:50:17;36.05;;;4.03;;
67776;SDS011;54576;52.020;5.536;2024-03-25T01:52:44;38.38;;;4.10;;
67776;SDS011;54576;52.020;5.536;2024-03-25T01:55:12;37.35;;;4.22;;
67776;SDS011;54576;52.020;5.536;2024-03-25T01:57:43;25.67;;;3.45;;
67776;SDS011;54576;52.020;5.536;2024-03-25T02:00:10;41.67;;;4.47;;
67776;SDS011;54576;52.020;5.536;2024-03-25T02:02:36;30.52;;;3.95;;
67776;SDS011;54576;52.020;5.536;2024-03-25T02:05:06;31.00;;;3.47;;
67776;SDS011;54576;52.020;5.536;2024-03-25T02:07:34;45.85;;;4.53;;
67776;SDS011;54576;52.020;5.536;2024-03-25T02:10:06;32.83;;;3.92;;
67776;SDS011;54576;52.020;5.536;2024-03-25T02:12:34;35.10;;;3.90;;
67776;SDS011;54576;52.020;5.536;2024-03-25T02:15:01;28.40;;;4.50;;
67776;SDS011;54576;52.020;5.536;2024-03-25T02:17:27;24.48;;;4.97;;
67776;SDS011;54576;52.020;5.536;2024-03-25T02:19:53;25.40;;;3.20;;
67776;SDS011;54576;52.020;5.536;2024-03-25T02:22:18;33.20;;;4.22;;
67776;SDS011;54576;52.020;5.536;2024-03-25T02:24:45;29.10;;;3.35;;
67776;SDS011;54576;52.020;5.536;2024-03-25T02:27:11;27.95;;;4.18;;
67776;SDS011;54576;52.020;5.536;2024-03-25T02:29:39;34.30;;;4.38;;
67776;SDS011;54576;52.020;5.536;2024-03-25T02:32:06;27.85;;;4.35;;
67776;SDS011;54576;52.020;5.536;2024-03-25T02:34:43;24.67;;;3.78;;
67776;SDS011;54576;52.020;5.536;2024-03-25T02:37:12;25.38;;;3.97;;
67776;SDS011;54576;52.020;5.536;2024-03-25T02:39:38;38.75;;;4.43;;
67776;SDS011;54576;52.020;5.536;2024-03-25T02:42:04;30.95;;;4.05;;
67776;SDS011;54576;52.020;5.536;2024-03-25T02:44:33;38.17;;;3.75;;
67776;SDS011;54576;52.020;5.536;2024-03-25T02:49:25;27.42;;;4.43;;
67776;SDS011;54576;52.020;5.536;2024-03-25T02:51:50;39.45;;;4.35;;
67776;SDS011;54576;52.020;5.536;2024-03-25T02:54:16;25.48;;;3.83;;
67776;SDS011;54576;52.020;5.536;2024-03-25T02:56:42;33.10;;;3.35;;
67776;SDS011;54576;52.020;5.536;2024-03-25T02:59:09;25.33;;;3.75;;
67776;SDS011;54576;52.020;5.536;2024-03-25T03:01:34;25.92;;;3.60;;
67776;SDS011;54576;52.020;5.536;2024-03-25T03:04:00;14.05;;;3.10;;
67776;SDS011;54576;52.020;5.536;2024-03-25T03:06:25;18.30;;;3.05;;
67776;SDS011;54576;52.020;5.536;2024-03-25T03:08:51;36.47;;;3.65;;
67776;SDS011;54576;52.020;5.536;2024-03-25T03:11:16;26.35;;;3.30;;
67776;SDS011;54576;52.020;5.536;2024-03-25T03:13:42;26.80;;;4.53;;
67776;SDS011;54576;52.020;5.536;2024-03-25T03:16:08;33.53;;;4.15;;
67776;SDS011;54576;52.020;5.536;2024-03-25T03:18:33;25.20;;;3.65;;
67776;SDS011;54576;52.020;5.536;2024-03-25T03:20:59;37.47;;;4.38;;
67776;SDS011;54576;52.020;5.536;2024-03-25T03:23:25;35.88;;;3.83;;
67776;SDS011;54576;52.020;5.536;2024-03-25T03:25:54;19.02;;;3.60;;
67776;SDS011;54576;52.020;5.536;2024-03-25T03:28:24;26.40;;;3.53;;
67776;SDS011;54576;52.020;5.536;2024-03-25T03:30:50;33.30;;;3.60;;
67776;SDS011;54576;52.020;5.536;2024-03-25T03:33:16;25.48;;;2.97;;
67776;SDS011;54576;52.020;5.536;2024-03-25T03:35:42;25.08;;;3.10;;
67776;SDS011;54576;52.020;5.536;2024-03-25T03:38:08;27.52;;;3.22;;
67776;SDS011;54576;52.020;5.536;2024-03-25T03:40:33;19.85;;;3.28;;
67776;SDS011;54576;52.020;5.536;2024-03-25T03:42:59;24.55;;;3.95;;
67776;SDS011;54576;52.020;5.536;2024-03-25T03:45:25;28.77;;;3.45;;
67776;SDS011;54576;52.020;5.536;2024-03-25T03:47:51;30.00;;;4.05;;
67776;SDS011;54576;52.020;5.536;2024-03-25T03:50:16;22.83;;;3.13;;
67776;SDS011;54576;52.020;5.536;2024-03-25T03:52:42;23.83;;;3.85;;
67776;SDS011;54576;52.020;5.536;2024-03-25T03:55:08;20.77;;;3.80;;
67776;SDS011;54576;52.020;5.536;2024-03-25T03:57:33;30.73;;;3.80;;
67776;SDS011;54576;52.020;5.536;2024-03-25T04:00:02;19.10;;;2.83;;
67776;SDS011;54576;52.020;5.536;2024-03-25T04:02:29;29.77;;;3.70;;
67776;SDS011;54576;52.020;5.536;2024-03-25T04:04:55;32.35;;;3.97;;
67776;SDS011;54576;52.020;5.536;2024-03-25T04:07:20;32.58;;;3.78;;
67776;SDS011;54576;52.020;5.536;2024-03-25T04:09:51;17.30;;;2.80;;
67776;SDS011;54576;52.020;5.536;2024-03-25T04:12:18;29.20;;;3.40;;
67776;SDS011;54576;52.020;5.536;2024-03-25T04:14:46;14.85;;;2.45;;
67776;SDS011;54576;52.020;5.536;2024-03-25T04:17:12;27.75;;;4.05;;
67776;SDS011;54576;52.020;5.536;2024-03-25T04:19:38;25.55;;;3.50;;
67776;SDS011;54576;52.020;5.536;2024-03-25T04:22:03;33.42;;;4.82;;
67776;SDS011;54576;52.020;5.536;2024-03-25T04:24:29;23.63;;;4.55;;
67776;SDS011;54576;52.020;5.536;2024-03-25T04:26:54;16.05;;;3.13;;
67776;SDS011;54576;52.020;5.536;2024-03-25T04:29:20;29.52;;;3.90;;
67776;SDS011;54576;52.020;5.536;2024-03-25T04:31:46;17.63;;;3.17;;
67776;SDS011;54576;52.020;5.536;2024-03-25T04:34:11;12.73;;;2.65;;
67776;SDS011;54576;52.020;5.536;2024-03-25T04:36:37;16.02;;;2.42;;
67776;SDS011;54576;52.020;5.536;2024-03-25T04:39:02;14.20;;;2.65;;
67776;SDS011;54576;52.020;5.536;2024-03-25T04:41:28;20.50;;;3.85;;
67776;SDS011;54576;52.020;5.536;2024-03-25T04:43:54;20.73;;;3.67;;
67776;SDS011;54576;52.020;5.536;2024-03-25T04:46:19;26.63;;;4.38;;
67776;SDS011;54576;52.020;5.536;2024-03-25T04:48:45;26.73;;;4.07;;
67776;SDS011;54576;52.020;5.536;2024-03-25T04:51:11;19.60;;;3.05;;
67776;SDS011;54576;52.020;5.536;2024-03-25T04:53:36;23.45;;;4.07;;
67776;SDS011;54576;52.020;5.536;2024-03-25T04:56:02;31.08;;;4.25;;
67776;SDS011;54576;52.020;5.536;2024-03-25T04:58:28;32.13;;;4.70;;
67776;SDS011;54576;52.020;5.536;2024-03-25T05:00:57;21.60;;;3.53;;
67776;SDS011;54576;52.020;5.536;2024-03-25T05:03:22;30.05;;;5.65;;
67776;SDS011;54576;52.020;5.536;2024-03-25T05:05:48;29.48;;;4.15;;
67776;SDS011;54576;52.020;5.536;2024-03-25T05:08:13;26.85;;;5.30;;
67776;SDS011;54576;52.020;5.536;2024-03-25T05:10:39;34.08;;;4.78;;
67776;SDS011;54576;52.020;5.536;2024-03-25T05:13:04;52.72;;;6.10;;
67776;SDS011;54576;52.020;5.536;2024-03-25T05:15:30;37.22;;;5.97;;
67776;SDS011;54576;52.020;5.536;2024-03-25T05:17:56;31.92;;;6.32;;
67776;SDS011;54576;52.020;5.536;2024-03-25T05:20:21;31.48;;;4.95;;
67776;SDS011;54576;52.020;5.536;2024-03-25T05:22:51;37.15;;;6.65;;
67776;SDS011;54576;52.020;5.536;2024-03-25T05:25:17;25.85;;;5.10;;
67776;SDS011;54576;52.020;5.536;2024-03-25T05:27:42;35.08;;;5.15;;
67776;SDS011;54576;52.020;5.536;2024-03-25T05:30:08;33.50;;;5.97;;
67776;SDS011;54576;52.020;5.536;2024-03-25T05:32:34;36.95;;;5.70;;
67776;SDS011;54576;52.020;5.536;2024-03-25T05:35:00;35.10;;;5.93;;
67776;SDS011;54576;52.020;5.536;2024-03-25T05:37:26;41.47;;;6.00;;
67776;SDS011;54576;52.020;5.536;2024-03-25T05:39:53;34.65;;;5.47;;
67776;SDS011;54576;52.020;5.536;2024-03-25T05:42:20;37.47;;;5.80;;
67776;SDS011;54576;52.020;5.536;2024-03-25T05:44:45;36.70;;;5.68;;
67776;SDS011;54576;52.020;5.536;2024-03-25T05:47:11;23.85;;;5.60;;
67776;SDS011;54576;52.020;5.536;2024-03-25T05:49:37;26.38;;;5.75;;
67776;SDS011;54576;52.020;5.536;2024-03-25T05:52:02;37.30;;;6.47;;
67776;SDS011;54576;52.020;5.536;2024-03-25T05:54:28;25.42;;;5.05;;
67776;SDS011;54576;52.020;5.536;2024-03-25T05:56:53;21.80;;;5.10;;
67776;SDS011;54576;52.020;5.536;2024-03-25T05:59:19;25.05;;;4.88;;
67776;SDS011;54576;52.020;5.536;2024-03-25T06:01:44;36.60;;;5.25;;
67776;SDS011;54576;52.020;5.536;2024-03-25T06:04:10;26.73;;;4.97;;
67776;SDS011;54576;52.020;5.536;2024-03-25T06:06:36;32.08;;;5.20;;
67776;SDS011;54576;52.020;5.536;2024-03-25T06:09:01;32.13;;;5.20;;
67776;SDS011;54576;52.020;5.536;2024-03-25T06:11:27;38.53;;;5.20;;
67776;SDS011;54576;52.020;5.536;2024-03-25T06:13:52;37.70;;;5.65;;
67776;SDS011;54576;52.020;5.536;2024-03-25T06:16:18;29.05;;;5.50;;
67776;SDS011;54576;52.020;5.536;2024-03-25T06:18:43;42.22;;;5.97;;
67776;SDS011;54576;52.020;5.536;2024-03-25T06:21:09;30.10;;;5.45;;
67776;SDS011;54576;52.020;5.536;2024-03-25T06:23:35;29.33;;;4.72;;
67776;SDS011;54576;52.020;5.536;2024-03-25T06:26:00;37.50;;;5.25;;
67776;SDS011;54576;52.020;5.536;2024-03-25T06:28:26;34.88;;;5.05;;
67776;SDS011;54576;52.020;5.536;2024-03-25T06:30:51;26.73;;;4.80;;
67776;SDS011;54576;52.020;5.536;2024-03-25T06:33:35;33.85;;;5.32;;
67776;SDS011;54576;52.020;5.536;2024-03-25T06:36:20;21.40;;;5.00;;
67776;SDS011;54576;52.020;5.536;2024-03-25T06:38:45;15.73;;;3.63;;
67776;SDS011;54576;52.020;5.536;2024-03-25T06:41:11;29.90;;;5.25;;
67776;SDS011;54576;52.020;5.536;2024-03-25T06:43:37;24.58;;;4.82;;
67776;SDS011;54576;52.020;5.536;2024-03-25T06:46:03;23.98;;;4.95;;
67776;SDS011;54576;52.020;5.536;2024-03-25T06:48:29;31.98;;;4.85;;
67776;SDS011;54576;52.020;5.536;2024-03-25T06:50:55;22.65;;;4.45;;
67776;SDS011;54576;52.020;5.536;2024-03-25T06:53:22;23.15;;;3.90;;
67776;SDS011;54576;52.020;5.536;2024-03-25T06:55:51;32.03;;;3.88;;
67776;SDS011;54576;52.020;5.536;2024-03-25T06:58:18;22.63;;;3.90;;
67776;SDS011;54576;52.020;5.536;2024-03-25T07:00:44;32.15;;;5.07;;
67776;SDS011;54576;52.020;5.536;2024-03-25T07:03:10;29.38;;;5.55;;
67776;SDS011;54576;52.020;5.536;2024-03-25T07:05:35;27.42;;;5.30;;
67776;SDS011;54576;52.020;5.536;2024-03-25T07:08:01;18.88;;;4.32;;
67776;SDS011;54576;52.020;5.536;2024-03-25T07:10:27;23.60;;;4.35;;
67776;SDS011;54576;52.020;5.536;2024-03-25T07:12:55;23.77;;;4.82;;
67776;SDS011;54576;52.020;5.536;2024-03-25T07:15:21;29.57;;;4.47;;
67776;SDS011;54576;52.020;5.536;2024-03-25T07:17:47;24.17;;;3.90;;
67776;SDS011;54576;52.020;5.536;2024-03-25T07:20:12;27.40;;;4.70;;
67776;SDS011;54576;52.020;5.536;2024-03-25T07:22:38;20.77;;;3.50;;
67776;SDS011;54576;52.020;5.536;2024-03-25T07:25:03;26.27;;;4.65;;
67776;SDS011;54576;52.020;5.536;2024-03-25T07:27:29;24.23;;;4.20;;
67776;SDS011;54576;52.020;5.536;2024-03-25T07:29:55;21.33;;;3.97;;
67776;SDS011;54576;52.020;5.536;2024-03-25T07:32:20;21.25;;;4.47;;
67776;SDS011;54576;52.020;5.536;2024-03-25T07:34:46;31.30;;;4.25;;
67776;SDS011;54576;52.020;5.536;2024-03-25T07:37:11;28.10;;;4.88;;
67776;SDS011;54576;52.020;5.536;2024-03-25T07:39:37;36.78;;;4.00;;
67776;SDS011;54576;52.020;5.536;2024-03-25T07:42:02;26.70;;;4.00;;
67776;SDS011;54576;52.020;5.536;2024-03-25T07:44:28;22.05;;;3.45;;
67776;SDS011;54576;52.020;5.536;2024-03-25T07:46:53;32.22;;;4.85;;
67776;SDS011;54576;52.020;5.536;2024-03-25T07:49:20;26.85;;;4.45;;
67776;SDS011;54576;52.020;5.536;2024-03-25T07:51:46;19.65;;;4.35;;
67776;SDS011;54576;52.020;5.536;2024-03-25T07:54:14;30.38;;;5.25;;
67776;SDS011;54576;52.020;5.536;2024-03-25T07:56:41;24.42;;;4.40;;
67776;SDS011;54576;52.020;5.536;2024-03-25T07:59:09;25.10;;;4.50;;
67776;SDS011;54576;52.020;5.536;2024-03-25T08:01:35;22.73;;;4.03;;
67776;SDS011;54576;52.020;5.536;2024-03-25T08:04:00;27.02;;;4.82;;
67776;SDS011;54576;52.020;5.536;2024-03-25T08:06:27;21.10;;;4.30;;
67776;SDS011;54576;52.020;5.536;2024-03-25T08:08:52;28.45;;;4.35;;
67776;SDS011;54576;52.020;5.536;2024-03-25T08:11:18;31.00;;;5.30;;
67776;SDS011;54576;52.020;5.536;2024-03-25T08:13:44;32.30;;;4.63;;
67776;SDS011;54576;52.020;5.536;2024-03-25T08:16:09;21.10;;;4.72;;
67776;SDS011;54576;52.020;5.536;2024-03-25T08:18:35;24.05;;;5.15;;
67776;SDS011;54576;52.020;5.536;2024-03-25T08:21:00;28.50;;;5.50;;
67776;SDS011;54576;52.020;5.536;2024-03-25T08:23:27;35.47;;;5.13;;
67776;SDS011;54576;52.020;5.536;2024-03-25T08:25:52;27.98;;;4.78;;
67776;SDS011;54576;52.020;5.536;2024-03-25T08:28:18;21.73;;;4.60;;
67776;SDS011;54576;52.020;5.536;2024-03-25T08:30:43;31.30;;;5.70;;
67776;SDS011;54576;52.020;5.536;2024-03-25T08:33:09;35.25;;;4.55;;
67776;SDS011;54576;52.020;5.536;2024-03-25T08:35:34;21.50;;;4.88;;
67776;SDS011;54576;52.020;5.536;2024-03-25T08:38:00;23.67;;;3.85;;
67776;SDS011;54576;52.020;5.536;2024-03-25T08:40:25;31.20;;;4.53;;
67776;SDS011;54576;52.020;5.536;2024-03-25T08:42:51;27.25;;;4.82;;
67776;SDS011;54576;52.020;5.536;2024-03-25T08:45:16;34.92;;;5.55;;
67776;SDS011;54576;52.020;5.536;2024-03-25T08:47:42;19.13;;;3.90;;
67776;SDS011;54576;52.020;5.536;2024-03-25T08:50:08;24.38;;;5.40;;
67776;SDS011;54576;52.020;5.536;2024-03-25T08:52:34;27.55;;;5.57;;
67776;SDS011;54576;52.020;5.536;2024-03-25T08:54:59;28.80;;;6.43;;
67776;SDS011;54576;52.020;5.536;2024-03-25T08:57:25;27.85;;;5.10;;
67776;SDS011;54576;52.020;5.536;2024-03-25T08:59:54;21.48;;;4.30;;
67776;SDS011;54576;52.020;5.536;2024-03-25T09:02:19;22.88;;;4.40;;
67776;SDS011;54576;52.020;5.536;2024-03-25T09:04:45;22.80;;;4.82;;
67776;SDS011;54576;52.020;5.536;2024-03-25T09:07:10;22.92;;;4.50;;
67776;SDS011;54576;52.020;5.536;2024-03-25T09:09:38;29.15;;;4.80;;
67776;SDS011;54576;52.020;5.536;2024-03-25T09:12:30;21.65;;;4.10;;
67776;SDS011;54576;52.020;5.536;2024-03-25T09:14:56;22.08;;;4.50;;
67776;SDS011;54576;52.020;5.536;2024-03-25T09:17:21;28.63;;;4.32;;
67776;SDS011;54576;52.020;5.536;2024-03-25T09:19:49;25.50;;;4.75;;
67776;SDS011;54576;52.020;5.536;2024-03-25T09:22:15;27.98;;;4.68;;
67776;SDS011;54576;52.020;5.536;2024-03-25T09:24:41;21.05;;;3.92;;
67776;SDS011;54576;52.020;5.536;2024-03-25T09:27:06;21.90;;;4.70;;
67776;SDS011;54576;52.020;5.536;2024-03-25T09:29:32;23.77;;;4.45;;
67776;SDS011;54576;52.020;5.536;2024-03-25T09:31:57;27.23;;;4.25;;
67776;SDS011;54576;52.020;5.536;2024-03-25T09:34:23;19.70;;;4.45;;
67776;SDS011;54576;52.020;5.536;2024-03-25T09:36:49;18.10;;;3.40;;
67776;SDS011;54576;52.020;5.536;2024-03-25T09:39:14;17.55;;;3.95;;
67776;SDS011;54576;52.020;5.536;2024-03-25T09:41:40;23.50;;;4.40;;
67776;SDS011;54576;52.020;5.536;2024-03-25T09:44:08;20.65;;;4.82;;
67776;SDS011;54576;52.020;5.536;2024-03-25T09:46:43;21.45;;;3.72;;
67776;SDS011;54576;52.020;5.536;2024-03-25T09:49:10;20.75;;;4.40;;
67776;SDS011;54576;52.020;5.536;2024-03-25T09:51:36;21.38;;;4.25;;
67776;SDS011;54576;52.020;5.536;2024-03-25T09:54:01;25.77;;;4.60;;
67776;SDS011;54576;52.020;5.536;2024-03-25T09:56:29;23.35;;;4.40;;
67776;SDS011;54576;52.020;5.536;2024-03-25T09:58:54;19.50;;;3.67;;
67776;SDS011;54576;52.020;5.536;2024-03-25T10:01:20;21.33;;;4.15;;
67776;SDS011;54576;52.020;5.536;2024-03-25T10:03:46;18.17;;;4.35;;
67776;SDS011;54576;52.020;5.536;2024-03-25T10:06:12;19.05;;;3.85;;
67776;SDS011;54576;52.020;5.536;2024-03-25T10:08:38;19.58;;;3.92;;
67776;SDS011;54576;52.020;5.536;2024-03-25T10:11:03;20.38;;;4.10;;
67776;SDS011;54576;52.020;5.536;2024-03-25T10:13:29;22.15;;;4.05;;
67776;SDS011;54576;52.020;5.536;2024-03-25T10:15:54;22.50;;;4.57;;
67776;SDS011;54576;52.020;5.536;2024-03-25T10:18:23;16.95;;;3.35;;
67776;SDS011;54576;52.020;5.536;2024-03-25T10:20:53;17.55;;;3.85;;
67776;SDS011;54576;52.020;5.536;2024-03-25T10:23:24;22.35;;;3.58;;
67776;SDS011;54576;52.020;5.536;2024-03-25T10:25:54;20.92;;;3.70;;
67776;SDS011;54576;52.020;5.536;2024-03-25T10:28:20;14.05;;;3.42;;
67776;SDS011;54576;52.020;5.536;2024-03-25T10:30:46;18.55;;;4.22;;
67776;SDS011;54576;52.020;5.536;2024-03-25T10:33:12;18.77;;;4.15;;
67776;SDS011;54576;52.020;5.536;2024-03-25T10:35:38;13.18;;;3.80;;
67776;SDS011;54576;52.020;5.536;2024-03-25T10:38:05;21.27;;;3.45;;
67776;SDS011;54576;52.020;5.536;2024-03-25T10:40:35;17.75;;;3.97;;
67776;SDS011;54576;52.020;5.536;2024-03-25T10:43:03;15.18;;;3.17;;
67776;SDS011;54576;52.020;5.536;2024-03-25T10:45:43;12.20;;;3.33;;
67776;SDS011;54576;52.020;5.536;2024-03-25T10:48:15;14.55;;;3.53;;
67776;SDS011;54576;52.020;5.536;2024-03-25T10:50:45;17.77;;;3.83;;
67776;SDS011;54576;52.020;5.536;2024-03-25T10:53:17;10.00;;;3.03;;
67776;SDS011;54576;52.020;5.536;2024-03-25T10:55:50;10.57;;;2.97;;
67776;SDS011;54576;52.020;5.536;2024-03-25T10:58:18;10.70;;;3.03;;
67776;SDS011;54576;52.020;5.536;2024-03-25T11:00:46;10.05;;;3.22;;
67776;SDS011;54576;52.020;5.536;2024-03-25T11:03:19;10.48;;;3.40;;
67776;SDS011;54576;52.020;5.536;2024-03-25T11:05:46;14.18;;;3.38;;
67776;SDS011;54576;52.020;5.536;2024-03-25T11:10:44;13.40;;;3.15;;
67776;SDS011;54576;52.020;5.536;2024-03-25T11:13:14;10.20;;;3.33;;
67776;SDS011;54576;52.020;5.536;2024-03-25T11:15:42;11.18;;;3.10;;
67776;SDS011;54576;52.020;5.536;2024-03-25T11:18:12;14.82;;;3.42;;
67776;SDS011;54576;52.020;5.536;2024-03-25T11:20:38;11.48;;;3.70;;
67776;SDS011;54576;52.020;5.536;2024-03-25T11:23:13;13.45;;;3.47;;
67776;SDS011;54576;52.020;5.536;2024-03-25T11:25:40;12.73;;;3.92;;
67776;SDS011;54576;52.020;5.536;2024-03-25T11:28:26;9.40;;;3.13;;
67776;SDS011;54576;52.020;5.536;2024-03-25T11:30:52;20.13;;;3.95;;
67776;SDS011;54576;52.020;5.536;2024-03-25T11:33:18;10.48;;;3.20;;
67776;SDS011;54576;52.020;5.536;2024-03-25T11:35:47;15.85;;;3.92;;
67776;SDS011;54576;52.020;5.536;2024-03-25T11:38:15;14.07;;;4.07;;
67776;SDS011;54576;52.020;5.536;2024-03-25T11:40:42;8.48;;;3.42;;
67776;SDS011;54576;52.020;5.536;2024-03-25T11:43:18;11.02;;;3.60;;
67776;SDS011;54576;52.020;5.536;2024-03-25T11:45:46;11.70;;;3.80;;
67776;SDS011;54576;52.020;5.536;2024-03-25T11:48:13;12.57;;;3.47;;
67776;SDS011;54576;52.020;5.536;2024-03-25T11:50:39;12.95;;;4.15;;
67776;SDS011;54576;52.020;5.536;2024-03-25T11:53:05;8.60;;;3.30;;
67776;SDS011;54576;52.020;5.536;2024-03-25T11:55:32;8.40;;;3.17;;
67776;SDS011;54576;52.020;5.536;2024-03-25T11:57:58;11.32;;;3.42;;
67776;SDS011;54576;52.020;5.536;2024-03-25T12:00:24;8.35;;;2.90;;
67776;SDS011;54576;52.020;5.536;2024-03-25T12:02:49;9.20;;;3.33;;
67776;SDS011;54576;52.020;5.536;2024-03-25T12:05:16;8.00;;;3.17;;
67776;SDS011;54576;52.020;5.536;2024-03-25T12:07:42;7.82;;;2.70;;
67776;SDS011;54576;52.020;5.536;2024-03-25T12:10:08;9.80;;;2.72;;
67776;SDS011;54576;52.020;5.536;2024-03-25T12:12:52;8.25;;;2.50;;
67776;SDS011;54576;52.020;5.536;2024-03-25T12:15:18;4.38;;;2.17;;
67776;SDS011;54576;52.020;5.536;2024-03-25T12:17:43;7.50;;;2.63;;
67776;SDS011;54576;52.020;5.536;2024-03-25T12:20:09;11.05;;;2.47;;
67776;SDS011;54576;52.020;5.536;2024-03-25T12:22:38;7.07;;;2.55;;
67776;SDS011;54576;52.020;5.536;2024-03-25T12:25:08;9.93;;;3.03;;
67776;SDS011;54576;52.020;5.536;2024-03-25T12:30:01;6.80;;;1.88;;
67776;SDS011;54576;52.020;5.536;2024-03-25T12:32:31;10.40;;;3.53;;
67776;SDS011;54576;52.020;5.536;2024-03-25T12:35:06;28.88;;;3.67;;
67776;SDS011;54576;52.020;5.536;2024-03-25T12:37:32;10.68;;;3.28;;
67776;SDS011;54576;52.020;5.536;2024-03-25T12:39:58;14.85;;;3.40;;
67776;SDS011;54576;52.020;5.536;2024-03-25T12:42:24;9.20;;;2.92;;
67776;SDS011;54576;52.020;5.536;2024-03-25T12:44:53;9.23;;;3.05;;
67776;SDS011;54576;52.020;5.536;2024-03-25T12:47:19;12.45;;;2.75;;
67776;SDS011;54576;52.020;5.536;2024-03-25T12:49:45;8.05;;;3.22;;
67776;SDS011;54576;52.020;5.536;2024-03-25T12:52:11;10.10;;;2.85;;
67776;SDS011;54576;52.020;5.536;2024-03-25T12:54:38;6.70;;;2.55;;
67776;SDS011;54576;52.020;5.536;2024-03-25T12:57:05;5.10;;;2.80;;
67776;SDS011;54576;52.020;5.536;2024-03-25T12:59:30;6.65;;;2.33;;
67776;SDS011;54576;52.020;5.536;2024-03-25T13:01:56;9.18;;;3.35;;
67776;SDS011;54576;52.020;5.536;2024-03-25T13:04:22;11.63;;;2.65;;
67776;SDS011;54576;52.020;5.536;2024-03-25T13:06:47;4.07;;;2.50;;
67776;SDS011;54576;52.020;5.536;2024-03-25T13:09:13;6.25;;;2.35;;
67776;SDS011;54576;52.020;5.536;2024-03-25T13:11:39;5.88;;;2.45;;
67776;SDS011;54576;52.020;5.536;2024-03-25T13:14:04;7.88;;;2.85;;
67776;SDS011;54576;52.020;5.536;2024-03-25T13:16:33;5.27;;;2.77;;
67776;SDS011;54576;52.020;5.536;2024-03-25T13:18:59;11.13;;;3.38;;
67776;SDS011;54576;52.020;5.536;2024-03-25T13:21:25;8.55;;;3.10;;
67776;SDS011;54576;52.020;5.536;2024-03-25T13:23:54;10.25;;;2.75;;
67776;SDS011;54576;52.020;5.536;2024-03-25T13:26:19;8.57;;;3.03;;
67776;SDS011;54576;52.020;5.536;2024-03-25T13:28:45;9.98;;;3.20;;
67776;SDS011;54576;52.020;5.536;2024-03-25T13:31:11;12.20;;;2.97;;
67776;SDS011;54576;52.020;5.536;2024-03-25T13:33:37;8.75;;;2.28;;
67776;SDS011;54576;52.020;5.536;2024-03-25T13:36:04;11.30;;;2.90;;
67776;SDS011;54576;52.020;5.536;2024-03-25T13:38:31;5.97;;;2.75;;
67776;SDS011;54576;52.020;5.536;2024-03-25T13:40:57;8.13;;;3.03;;
67776;SDS011;54576;52.020;5.536;2024-03-25T13:43:24;6.93;;;2.60;;
67776;SDS011;54576;52.020;5.536;2024-03-25T13:45:49;7.60;;;2.60;;
67776;SDS011;54576;52.020;5.536;2024-03-25T13:48:15;11.25;;;3.50;;
67776;SDS011;54576;52.020;5.536;2024-03-25T13:50:41;10.55;;;3.28;;
67776;SDS011;54576;52.020;5.536;2024-03-25T13:53:07;14.48;;;3.50;;
67776;SDS011;54576;52.020;5.536;2024-03-25T13:55:34;8.75;;;3.65;;
67776;SDS011;54576;52.020;5.536;2024-03-25T13:58:00;8.13;;;3.28;;
67776;SDS011;54576;52.020;5.536;2024-03-25T14:00:25;12.10;;;3.90;;
67776;SDS011;54576;52.020;5.536;2024-03-25T14:02:53;6.22;;;2.53;;
67776;SDS011;54576;52.020;5.536;2024-03-25T14:05:25;5.60;;;2.75;;
67776;SDS011;54576;52.020;5.536;2024-03-25T14:07:50;10.85;;;2.92;;
67776;SDS011;54576;52.020;5.536;2024-03-25T14:10:16;8.25;;;3.00;;
67776;SDS011;54576;52.020;5.536;2024-03-25T14:12:42;12.25;;;2.83;;
67776;SDS011;54576;52.020;5.536;2024-03-25T14:15:08;7.05;;;2.85;;
67776;SDS011;54576;52.020;5.536;2024-03-25T14:17:34;6.10;;;3.13;;
67776;SDS011;54576;52.020;5.536;2024-03-25T14:20:01;9.32;;;2.70;;
67776;SDS011;54576;52.020;5.536;2024-03-25T14:22:26;4.68;;;2.25;;
67776;SDS011;54576;52.020;5.536;2024-03-25T14:24:52;10.20;;;3.40;;
67776;SDS011;54576;52.020;5.536;2024-03-25T14:27:22;5.63;;;2.90;;
67776;SDS011;54576;52.020;5.536;2024-03-25T14:29:48;9.05;;;3.28;;
67776;SDS011;54576;52.020;5.536;2024-03-25T14:32:14;10.25;;;2.95;;
67776;SDS011;54576;52.020;5.536;2024-03-25T14:34:39;6.70;;;2.78;;
67776;SDS011;54576;52.020;5.536;2024-03-25T14:37:05;9.57;;;3.15;;
67776;SDS011;54576;52.020;5.536;2024-03-25T14:39:31;10.73;;;3.22;;